Buoy 41936

sailwx.info

Track history (hours):
 
Tides and Currents Weather Stations Pressure Air Temp Water Temp Dewpoint Dewpoint Depression Visibility Wind Speed Wind Dir Waves Ship Positions

Drifting buoy 41936

Last reported at 2014-Jul-30 07:00 UTC. Time now 2014-Jul-30 11:09 UTC.
Position N 31°16' W 067°56'.

Barometer 1019.2 mb
Water temperature 27.9 ° C

Date/timePositionNaut miles runAvg speedWind from/ knotsBaromVisibWave heightAir tempDewpointWater temp
2014-Jul-30 07:00N 31°16' W 067°56'2 0.3 1019.2 27.9
2014-Jul-30 02:00N 31°14' W 067°55'0 0.5 1019.9 28.0
2014-Jul-30 01:00N 31°15' W 067°55'0 0.0 1019.6 28.0
2014-Jul-30 00:00N 31°15' W 067°55'0 0.1 1019.4 28.0
2014-Jul-29 22:00N 31°15' W 067°55'0 0.2 1019.3 28.1
2014-Jul-29 21:00N 31°15' W 067°55'2 0.4 1019.4 28.1
2014-Jul-29 16:00N 31°16' W 067°56'0 0.0 1019.8 28.0
2014-Jul-29 15:00N 31°16' W 067°56'1 1.0 1019.5 28.0
2014-Jul-29 14:00N 31°16' W 067°57'1 0.3 1019.3 27.9
2014-Jul-29 11:00N 31°17' W 067°57'2 1.7 1018.6 27.9
2014-Jul-29 10:00N 31°16' W 067°59'1 0.3 1018.1 27.9
2014-Jul-29 07:00N 31°15' W 067°59'0 0.0 1017.6 28.0
2014-Jul-29 02:00N 31°15' W 067°59'1 1.4 1018.9 28.0
2014-Jul-29 01:00N 31°16' W 068°00'0 0.0 1018.7 28.1
2014-Jul-29 00:00N 31°16' W 068°00'1 0.5 1018.1 28.1
2014-Jul-28 22:00N 31°15' W 067°59'0 0.2 1018.0 28.1
2014-Jul-28 21:00N 31°15' W 067°59'0 0.2 1018.3 28.1
2014-Jul-28 19:00N 31°16' W 067°59'1 0.6 1018.5 28.2
2014-Jul-28 17:00N 31°17' W 067°59'0 0.0 1019.5 28.1
2014-Jul-28 16:00N 31°17' W 067°59'0 0.4 1019.6 28.0
2014-Jul-28 15:00N 31°17' W 067°59'1 0.3 1019.4 28.0
2014-Jul-28 11:00N 31°18' W 068°00'0 0.4 1018.3 27.9
2014-Jul-28 10:00N 31°18' W 068°01'0 0.5 1018.0 27.9
2014-Jul-28 09:00N 31°18' W 068°01'1 0.5 1017.5 28.0
2014-Jul-28 08:00N 31°18' W 068°02'1 1.0 1017.6 28.0
2014-Jul-28 07:00N 31°19' W 068°03'0 0.0 1018.0 28.0
2014-Jul-28 06:00N 31°19' W 068°03'0 0.1 1018.0 28.0
2014-Jul-28 02:00N 31°18' W 068°03'0 0.0 1019.4 28.1
2014-Jul-28 01:00N 31°18' W 068°03'1 0.9 1019.5 28.1
2014-Jul-28 00:00N 31°19' W 068°03'0 0.3 1019.1 28.1
2014-Jul-27 23:00N 31°19' W 068°03'0 0.1 1018.3 28.1
2014-Jul-27 21:00N 31°19' W 068°03'0 0.0 1018.4 28.1
2014-Jul-27 20:00N 31°19' W 068°03'1 0.5 1018.4 28.1
2014-Jul-27 19:00N 31°19' W 068°03'0 0.0 1019.0 28.1
2014-Jul-27 17:00N 31°19' W 068°03'1 1.3 1019.7 28.1
2014-Jul-27 16:00N 31°21' W 068°03'1 0.8 1019.8 28.1
2014-Jul-27 15:00N 31°21' W 068°04'0 0.0 1019.7 28.1
2014-Jul-27 14:00N 31°21' W 068°04'2 0.6 1019.6 28.1
2014-Jul-27 11:00N 31°23' W 068°04'1 1.3 1018.3 28.1
2014-Jul-27 10:00N 31°23' W 068°06'0 0.0 1018.2 28.1
2014-Jul-27 09:00N 31°23' W 068°06'1 0.7 1018.3 28.1
2014-Jul-27 08:00N 31°23' W 068°06'1 0.5 1018.0 28.1
2014-Jul-27 06:00N 31°23' W 068°08'1 0.2 1018.3 28.2
2014-Jul-27 02:00N 31°22' W 068°08'0 0.0 1020.0 28.2
2014-Jul-27 01:00N 31°22' W 068°08'1 0.3 1020.0 28.2
2014-Jul-26 22:00N 31°23' W 068°07'0 0.3 1019.5 28.3
2014-Jul-26 21:00N 31°23' W 068°07'0 0.0 1019.3 28.3
2014-Jul-26 20:00N 31°23' W 068°07'2 0.4 1018.9 28.3
2014-Jul-26 15:00N 31°25' W 068°08'0 0.0 1019.9 28.2
2014-Jul-26 14:00N 31°25' W 068°08'1 1.5 1020.1 28.1
2014-Jul-26 13:00N 31°26' W 068°09'1 0.6 1019.9 28.1
2014-Jul-26 11:00N 31°27' W 068°10'0 0.3 1019.3 28.1
2014-Jul-26 10:00N 31°27' W 068°10'1 1.4 1019.0 28.1
2014-Jul-26 09:00N 31°28' W 068°11'1 0.8 1018.6 28.1
2014-Jul-26 08:00N 31°27' W 068°12'0 0.0 1018.4 28.1
2014-Jul-26 07:00N 31°27' W 068°12'0 0.1 1018.6 28.2
2014-Jul-26 06:00N 31°27' W 068°12'2 0.6 1019.0 28.2
2014-Jul-26 03:00N 31°26' W 068°13'1 1.1 1020.2 28.2
2014-Jul-26 02:00N 31°27' W 068°12'1 0.6 1020.7 28.2
2014-Jul-26 01:00N 31°27' W 068°13'0 0.0 1020.3 28.2
2014-Jul-26 00:00N 31°27' W 068°13'1 0.3 1019.6 28.2
2014-Jul-25 21:00N 31°28' W 068°13'1 0.8 1019.4 28.3
2014-Jul-25 20:00N 31°29' W 068°13'0 0.0 1018.8 28.3
2014-Jul-25 19:00N 31°29' W 068°13'1 0.9 1019.2 28.3
2014-Jul-25 18:00N 31°30' W 068°14'3 0.7 1019.7 28.3
2014-Jul-25 14:00N 31°31' W 068°16'0 0.0 1020.2 28.2
2014-Jul-25 13:00N 31°31' W 068°16'3 3.0 1020.2 28.1
2014-Jul-25 12:00N 31°32' W 068°20'0 0.0 1020.0 28.1
2014-Jul-25 11:00N 31°32' W 068°20'2 1.7 1019.8 28.1
2014-Jul-25 10:00N 31°31' W 068°22'0 0.3 1019.3 28.1
2014-Jul-25 09:00N 31°31' W 068°21'1 1.1 1018.7 28.1
2014-Jul-25 08:00N 31°31' W 068°23'0 0.0 1018.9 28.2
2014-Jul-25 06:00N 31°31' W 068°23'0 0.0 1018.7 28.2
2014-Jul-25 05:00N 31°31' W 068°23'1 0.3 1019.1 28.2
2014-Jul-25 03:00N 31°30' W 068°22'0 0.1 1019.9 28.2
2014-Jul-25 02:00N 31°30' W 068°22'0 0.3 1019.6 28.3
2014-Jul-25 01:00N 31°31' W 068°22'1 1.3 1019.3 28.3
2014-Jul-25 00:00N 31°32' W 068°23'0 0.0 1019.1 28.3
2014-Jul-24 23:00N 31°32' W 068°23'1 0.6 1019.2 28.3
2014-Jul-24 21:00N 31°33' W 068°23'2 2.0 1019.0 28.3
2014-Jul-24 20:00N 31°34' W 068°25'0 0.1 1019.2 28.3
2014-Jul-24 19:00N 31°34' W 068°25'3 1.1 1019.5 28.3
2014-Jul-24 16:00N 31°35' W 068°29'1 1.1 1020.2 28.4
2014-Jul-24 15:00N 31°35' W 068°28'2 2.5 1020.1 28.3
2014-Jul-24 14:00N 31°34' W 068°30'0 0.0 1019.9 28.3
2014-Jul-24 11:00N 31°34' W 068°30'1 0.7 1019.8 28.3
2014-Jul-24 10:00N 31°33' W 068°31'1 0.8 1019.5 28.4
2014-Jul-24 09:00N 31°33' W 068°31'0 0.3 1019.5 28.4
2014-Jul-24 08:00N 31°33' W 068°31'2 1.6 1019.1 28.4
2014-Jul-24 07:00N 31°33' W 068°33'0 0.3 1019.0 28.4
2014-Jul-24 06:00N 31°34' W 068°33'0 0.0 1019.5 28.4
2014-Jul-24 03:00N 31°34' W 068°33'1 1.1 1020.6 28.5
2014-Jul-24 02:00N 31°34' W 068°34'0 0.0 1021.1 28.5
2014-Jul-24 01:00N 31°34' W 068°34'0 0.1 1021.5 28.5
2014-Jul-23 23:00N 31°34' W 068°34'0 0.0 1021.3 28.5
2014-Jul-23 22:00N 31°34' W 068°34'0 0.5 1021.1 28.6
2014-Jul-23 21:00N 31°34' W 068°34'1 0.3 1021.0 28.6
2014-Jul-23 18:00N 31°34' W 068°35'2 1.0 1021.8 28.7
2014-Jul-23 16:00N 31°35' W 068°37'1 0.6 1021.8 28.6
2014-Jul-23 14:00N 31°34' W 068°38'0 0.0 1022.3 28.5
2014-Jul-23 13:00N 31°34' W 068°38'1 0.3 1022.0 28.4
2014-Jul-23 10:00N 31°34' W 068°39'1 0.8 1021.8 28.3
2014-Jul-23 09:00N 31°33' W 068°40'0 0.0 1021.7 28.4
2014-Jul-23 08:00N 31°33' W 068°40'0 0.2 1021.7 28.4
2014-Jul-23 07:00N 31°33' W 068°40'1 0.1 1021.7 28.4
2014-Jul-23 02:00N 31°33' W 068°40'0 0.3 1023.1 28.6
2014-Jul-23 01:00N 31°34' W 068°40'1 0.6 1022.8 28.6
2014-Jul-23 00:00N 31°33' W 068°41'1 0.3 1022.5 28.7
2014-Jul-22 21:00N 31°33' W 068°42'1 0.2 1022.4 28.9
2014-Jul-22 16:00N 31°34' W 068°43'0 0.4 1023.4 28.6
2014-Jul-22 15:00N 31°34' W 068°44'0 0.2 1023.5 28.4
2014-Jul-22 14:00N 31°34' W 068°44'1 1.3 1023.4 28.3
2014-Jul-22 13:00N 31°33' W 068°45'1 0.2 1023.3 28.3
2014-Jul-22 10:00N 31°33' W 068°46'0 0.4 1022.3 28.2
2014-Jul-22 09:00N 31°33' W 068°45'1 0.7 1021.9 28.2
2014-Jul-22 07:00N 31°32' W 068°46'1 0.2 1021.6 28.3
2014-Jul-22 02:00N 31°31' W 068°46'2 1.8 1023.2 28.3
2014-Jul-22 01:00N 31°32' W 068°48'1 0.4 1023.0 28.4
2014-Jul-21 23:00N 31°31' W 068°47'1 0.9 1022.5 28.5
2014-Jul-21 22:00N 31°31' W 068°46'1 0.5 1022.3 28.5
2014-Jul-21 21:00N 31°30' W 068°47'1 0.4 1022.1 28.5
2014-Jul-21 18:00N 31°31' W 068°48'0 0.0 1022.6 28.5
2014-Jul-21 17:00N 31°31' W 068°48'1 0.5 1022.9 28.4
2014-Jul-21 16:00N 31°31' W 068°48'0 0.2 1023.0 28.4
2014-Jul-21 15:00N 31°30' W 068°48'0 0.0 1023.2 28.3
2014-Jul-21 14:00N 31°30' W 068°48'2 2.0 1022.9 28.2
2014-Jul-21 13:00N 31°29' W 068°50'0 0.0 1022.7 28.1
2014-Jul-21 11:00N 31°29' W 068°50'1 0.7 1022.3 28.1
2014-Jul-21 10:00N 31°29' W 068°50'1 1.1 1021.9 28.1
2014-Jul-21 09:00N 31°28' W 068°51'2 1.2 1021.3 28.1
2014-Jul-21 07:00N 31°26' W 068°49'1 0.2 1021.2 28.1
2014-Jul-21 03:00N 31°26' W 068°49'0 0.0 1022.1 28.2
2014-Jul-21 02:00N 31°26' W 068°49'0 0.4 1022.2 28.2
2014-Jul-21 01:00N 31°27' W 068°49'0 0.0 1021.9 28.2
2014-Jul-21 00:00N 31°27' W 068°49'0 0.1 1021.5 28.2
2014-Jul-20 23:00N 31°27' W 068°49'0 0.3 1021.6 28.3
2014-Jul-20 22:00N 31°27' W 068°50'0 0.2 1021.4 28.3
2014-Jul-20 21:00N 31°27' W 068°50'1 0.3 1021.2 28.3
2014-Jul-20 19:00N 31°27' W 068°50'1 0.4 1021.9 28.3
2014-Jul-20 15:00N 31°26' W 068°52'1 0.8 1022.6 28.1
2014-Jul-20 14:00N 31°25' W 068°51'2 0.7 1022.2 28.1
2014-Jul-20 11:00N 31°24' W 068°53'0 0.4 1021.4 28.0
2014-Jul-20 10:00N 31°23' W 068°53'0 0.4 1020.8 28.0
2014-Jul-20 09:00N 31°23' W 068°53'0 0.4 1020.8 28.0
2014-Jul-20 08:00N 31°23' W 068°53'2 2.5 1021.0 28.1
2014-Jul-20 07:00N 31°20' W 068°53'   1021.4 28.1
Track history (hours):
 
Tides and Currents Weather Stations Pressure Air Temp Water Temp Dewpoint Dewpoint Depression Visibility Wind Speed Wind Dir Waves Ship Positions

Drifting buoy 41936

Last reported at 2014-Jul-30 07:00 UTC. Time now 2014-Jul-30 11:09 UTC.
Position N 31°16' W 067°56'.

Barometer 1019.2 mb
Water temperature 27.9 ° C

Date/timePositionNaut miles runAvg speedWind from/ knotsBaromVisibWave heightAir tempDewpointWater temp
2014-Jul-30 07:00N 31°16' W 067°56'2 0.3 1019.2 27.9
2014-Jul-30 02:00N 31°14' W 067°55'0 0.5 1019.9 28.0
2014-Jul-30 01:00N 31°15' W 067°55'0 0.0 1019.6 28.0
2014-Jul-30 00:00N 31°15' W 067°55'0 0.1 1019.4 28.0
2014-Jul-29 22:00N 31°15' W 067°55'0 0.2 1019.3 28.1
2014-Jul-29 21:00N 31°15' W 067°55'2 0.4 1019.4 28.1
2014-Jul-29 16:00N 31°16' W 067°56'0 0.0 1019.8 28.0
2014-Jul-29 15:00N 31°16' W 067°56'1 1.0 1019.5 28.0
2014-Jul-29 14:00N 31°16' W 067°57'1 0.3 1019.3 27.9
2014-Jul-29 11:00N 31°17' W 067°57'2 1.7 1018.6 27.9
2014-Jul-29 10:00N 31°16' W 067°59'1 0.3 1018.1 27.9
2014-Jul-29 07:00N 31°15' W 067°59'0 0.0 1017.6 28.0
2014-Jul-29 02:00N 31°15' W 067°59'1 1.4 1018.9 28.0
2014-Jul-29 01:00N 31°16' W 068°00'0 0.0 1018.7 28.1
2014-Jul-29 00:00N 31°16' W 068°00'1 0.5 1018.1 28.1
2014-Jul-28 22:00N 31°15' W 067°59'0 0.2 1018.0 28.1
2014-Jul-28 21:00N 31°15' W 067°59'0 0.2 1018.3 28.1
2014-Jul-28 19:00N 31°16' W 067°59'1 0.6 1018.5 28.2
2014-Jul-28 17:00N 31°17' W 067°59'0 0.0 1019.5 28.1
2014-Jul-28 16:00N 31°17' W 067°59'0 0.4 1019.6 28.0
2014-Jul-28 15:00N 31°17' W 067°59'1 0.3 1019.4 28.0
2014-Jul-28 11:00N 31°18' W 068°00'0 0.4 1018.3 27.9
2014-Jul-28 10:00N 31°18' W 068°01'0 0.5 1018.0 27.9
2014-Jul-28 09:00N 31°18' W 068°01'1 0.5 1017.5 28.0
2014-Jul-28 08:00N 31°18' W 068°02'1 1.0 1017.6 28.0
2014-Jul-28 07:00N 31°19' W 068°03'0 0.0 1018.0 28.0
2014-Jul-28 06:00N 31°19' W 068°03'0 0.1 1018.0 28.0
2014-Jul-28 02:00N 31°18' W 068°03'0 0.0 1019.4 28.1
2014-Jul-28 01:00N 31°18' W 068°03'1 0.9 1019.5 28.1
2014-Jul-28 00:00N 31°19' W 068°03'0 0.3 1019.1 28.1
2014-Jul-27 23:00N 31°19' W 068°03'0 0.1 1018.3 28.1
2014-Jul-27 21:00N 31°19' W 068°03'0 0.0 1018.4 28.1
2014-Jul-27 20:00N 31°19' W 068°03'1 0.5 1018.4 28.1
2014-Jul-27 19:00N 31°19' W 068°03'0 0.0 1019.0 28.1
2014-Jul-27 17:00N 31°19' W 068°03'1 1.3 1019.7 28.1
2014-Jul-27 16:00N 31°21' W 068°03'1 0.8 1019.8 28.1
2014-Jul-27 15:00N 31°21' W 068°04'0 0.0 1019.7 28.1
2014-Jul-27 14:00N 31°21' W 068°04'2 0.6 1019.6 28.1
2014-Jul-27 11:00N 31°23' W 068°04'1 1.3 1018.3 28.1
2014-Jul-27 10:00N 31°23' W 068°06'0 0.0 1018.2 28.1
2014-Jul-27 09:00N 31°23' W 068°06'1 0.7 1018.3 28.1
2014-Jul-27 08:00N 31°23' W 068°06'1 0.5 1018.0 28.1
2014-Jul-27 06:00N 31°23' W 068°08'1 0.2 1018.3 28.2
2014-Jul-27 02:00N 31°22' W 068°08'0 0.0 1020.0 28.2
2014-Jul-27 01:00N 31°22' W 068°08'1 0.3 1020.0 28.2
2014-Jul-26 22:00N 31°23' W 068°07'0 0.3 1019.5 28.3
2014-Jul-26 21:00N 31°23' W 068°07'0 0.0 1019.3 28.3
2014-Jul-26 20:00N 31°23' W 068°07'2 0.4 1018.9 28.3
2014-Jul-26 15:00N 31°25' W 068°08'0 0.0 1019.9 28.2
2014-Jul-26 14:00N 31°25' W 068°08'1 1.5 1020.1 28.1
2014-Jul-26 13:00N 31°26' W 068°09'1 0.6 1019.9 28.1
2014-Jul-26 11:00N 31°27' W 068°10'0 0.3 1019.3 28.1
2014-Jul-26 10:00N 31°27' W 068°10'1 1.4 1019.0 28.1
2014-Jul-26 09:00N 31°28' W 068°11'1 0.8 1018.6 28.1
2014-Jul-26 08:00N 31°27' W 068°12'0 0.0 1018.4 28.1
2014-Jul-26 07:00N 31°27' W 068°12'0 0.1 1018.6 28.2
2014-Jul-26 06:00N 31°27' W 068°12'2 0.6 1019.0 28.2
2014-Jul-26 03:00N 31°26' W 068°13'1 1.1 1020.2 28.2
2014-Jul-26 02:00N 31°27' W 068°12'1 0.6 1020.7 28.2
2014-Jul-26 01:00N 31°27' W 068°13'0 0.0 1020.3 28.2
2014-Jul-26 00:00N 31°27' W 068°13'1 0.3 1019.6 28.2
2014-Jul-25 21:00N 31°28' W 068°13'1 0.8 1019.4 28.3
2014-Jul-25 20:00N 31°29' W 068°13'0 0.0 1018.8 28.3
2014-Jul-25 19:00N 31°29' W 068°13'1 0.9 1019.2 28.3
2014-Jul-25 18:00N 31°30' W 068°14'3 0.7 1019.7 28.3
2014-Jul-25 14:00N 31°31' W 068°16'0 0.0 1020.2 28.2
2014-Jul-25 13:00N 31°31' W 068°16'3 3.0 1020.2 28.1
2014-Jul-25 12:00N 31°32' W 068°20'0 0.0 1020.0 28.1
2014-Jul-25 11:00N 31°32' W 068°20'2 1.7 1019.8 28.1
2014-Jul-25 10:00N 31°31' W 068°22'0 0.3 1019.3 28.1
2014-Jul-25 09:00N 31°31' W 068°21'1 1.1 1018.7 28.1
2014-Jul-25 08:00N 31°31' W 068°23'0 0.0 1018.9 28.2
2014-Jul-25 06:00N 31°31' W 068°23'0 0.0 1018.7 28.2
2014-Jul-25 05:00N 31°31' W 068°23'1 0.3 1019.1 28.2
2014-Jul-25 03:00N 31°30' W 068°22'0 0.1 1019.9 28.2
2014-Jul-25 02:00N 31°30' W 068°22'0 0.3 1019.6 28.3
2014-Jul-25 01:00N 31°31' W 068°22'1 1.3 1019.3 28.3
2014-Jul-25 00:00N 31°32' W 068°23'0 0.0 1019.1 28.3
2014-Jul-24 23:00N 31°32' W 068°23'1 0.6 1019.2 28.3
2014-Jul-24 21:00N 31°33' W 068°23'2 2.0 1019.0 28.3
2014-Jul-24 20:00N 31°34' W 068°25'0 0.1 1019.2 28.3
2014-Jul-24 19:00N 31°34' W 068°25'3 1.1 1019.5 28.3
2014-Jul-24 16:00N 31°35' W 068°29'1 1.1 1020.2 28.4
2014-Jul-24 15:00N 31°35' W 068°28'2 2.5 1020.1 28.3
2014-Jul-24 14:00N 31°34' W 068°30'0 0.0 1019.9 28.3
2014-Jul-24 11:00N 31°34' W 068°30'1 0.7 1019.8 28.3
2014-Jul-24 10:00N 31°33' W 068°31'1 0.8 1019.5 28.4
2014-Jul-24 09:00N 31°33' W 068°31'0 0.3 1019.5 28.4
2014-Jul-24 08:00N 31°33' W 068°31'2 1.6 1019.1 28.4
2014-Jul-24 07:00N 31°33' W 068°33'0 0.3 1019.0 28.4
2014-Jul-24 06:00N 31°34' W 068°33'0 0.0 1019.5 28.4
2014-Jul-24 03:00N 31°34' W 068°33'1 1.1 1020.6 28.5
2014-Jul-24 02:00N 31°34' W 068°34'0 0.0 1021.1 28.5
2014-Jul-24 01:00N 31°34' W 068°34'0 0.1 1021.5 28.5
2014-Jul-23 23:00N 31°34' W 068°34'0 0.0 1021.3 28.5
2014-Jul-23 22:00N 31°34' W 068°34'0 0.5 1021.1 28.6
2014-Jul-23 21:00N 31°34' W 068°34'1 0.3 1021.0 28.6
2014-Jul-23 18:00N 31°34' W 068°35'2 1.0 1021.8 28.7
2014-Jul-23 16:00N 31°35' W 068°37'1 0.6 1021.8 28.6
2014-Jul-23 14:00N 31°34' W 068°38'0 0.0 1022.3 28.5
2014-Jul-23 13:00N 31°34' W 068°38'1 0.3 1022.0 28.4
2014-Jul-23 10:00N 31°34' W 068°39'1 0.8 1021.8 28.3
2014-Jul-23 09:00N 31°33' W 068°40'0 0.0 1021.7 28.4
2014-Jul-23 08:00N 31°33' W 068°40'0 0.2 1021.7 28.4
2014-Jul-23 07:00N 31°33' W 068°40'1 0.1 1021.7 28.4
2014-Jul-23 02:00N 31°33' W 068°40'0 0.3 1023.1 28.6
2014-Jul-23 01:00N 31°34' W 068°40'1 0.6 1022.8 28.6
2014-Jul-23 00:00N 31°33' W 068°41'1 0.3 1022.5 28.7
2014-Jul-22 21:00N 31°33' W 068°42'1 0.2 1022.4 28.9
2014-Jul-22 16:00N 31°34' W 068°43'0 0.4 1023.4 28.6
2014-Jul-22 15:00N 31°34' W 068°44'0 0.2 1023.5 28.4
2014-Jul-22 14:00N 31°34' W 068°44'1 1.3 1023.4 28.3
2014-Jul-22 13:00N 31°33' W 068°45'1 0.2 1023.3 28.3
2014-Jul-22 10:00N 31°33' W 068°46'0 0.4 1022.3 28.2
2014-Jul-22 09:00N 31°33' W 068°45'1 0.7 1021.9 28.2
2014-Jul-22 07:00N 31°32' W 068°46'1 0.2 1021.6 28.3
2014-Jul-22 02:00N 31°31' W 068°46'2 1.8 1023.2 28.3
2014-Jul-22 01:00N 31°32' W 068°48'1 0.4 1023.0 28.4
2014-Jul-21 23:00N 31°31' W 068°47'1 0.9 1022.5 28.5
2014-Jul-21 22:00N 31°31' W 068°46'1 0.5 1022.3 28.5
2014-Jul-21 21:00N 31°30' W 068°47'1 0.4 1022.1 28.5
2014-Jul-21 18:00N 31°31' W 068°48'0 0.0 1022.6 28.5
2014-Jul-21 17:00N 31°31' W 068°48'1 0.5 1022.9 28.4
2014-Jul-21 16:00N 31°31' W 068°48'0 0.2 1023.0 28.4
2014-Jul-21 15:00N 31°30' W 068°48'0 0.0 1023.2 28.3
2014-Jul-21 14:00N 31°30' W 068°48'2 2.0 1022.9 28.2
2014-Jul-21 13:00N 31°29' W 068°50'0 0.0 1022.7 28.1
2014-Jul-21 11:00N 31°29' W 068°50'1 0.7 1022.3 28.1
2014-Jul-21 10:00N 31°29' W 068°50'1 1.1 1021.9 28.1
2014-Jul-21 09:00N 31°28' W 068°51'2 1.2 1021.3 28.1
2014-Jul-21 07:00N 31°26' W 068°49'1 0.2 1021.2 28.1
2014-Jul-21 03:00N 31°26' W 068°49'0 0.0 1022.1 28.2
2014-Jul-21 02:00N 31°26' W 068°49'0 0.4 1022.2 28.2
2014-Jul-21 01:00N 31°27' W 068°49'0 0.0 1021.9 28.2
2014-Jul-21 00:00N 31°27' W 068°49'0 0.1 1021.5 28.2
2014-Jul-20 23:00N 31°27' W 068°49'0 0.3 1021.6 28.3
2014-Jul-20 22:00N 31°27' W 068°50'0 0.2 1021.4 28.3
2014-Jul-20 21:00N 31°27' W 068°50'1 0.3 1021.2 28.3
2014-Jul-20 19:00N 31°27' W 068°50'1 0.4 1021.9 28.3
2014-Jul-20 15:00N 31°26' W 068°52'1 0.8 1022.6 28.1
2014-Jul-20 14:00N 31°25' W 068°51'2 0.7 1022.2 28.1
2014-Jul-20 11:00N 31°24' W 068°53'0 0.4 1021.4 28.0
2014-Jul-20 10:00N 31°23' W 068°53'0 0.4 1020.8 28.0
2014-Jul-20 09:00N 31°23' W 068°53'0 0.4 1020.8 28.0
2014-Jul-20 08:00N 31°23' W 068°53'2 2.5 1021.0 28.1
2014-Jul-20 07:00N 31°20' W 068°53'   1021.4 28.1

Dump ship's entire track history